Terminal Aerodrome Forecast
Issued by NWS

Home | Current Version | Previous Version | Text Only | Print | Product List | Glossary On
Versions: 1 2 3 4 5 6 7 8 9 10 11 12 13 14
000
FTUS46 KMTR 021700
TAFMRY
TAF
KMRY 021732Z 0218/0318 24005KT P6SM OVC008
     FM021930 25010KT P6SM SKC
     FM030200 25006KT P6SM BKN010
     FM030500 25005KT P6SM OVC006=

USA.gov is the U.S. government's official web portal to all federal, state and local government web resources and services.